Time;durP1;ratioP1;P1;durP2;ratioP2;P2;SDS_P1;SDS_P2;PMS_P1;PMS_P2;Temp;Humidity;BMP_temperature;BMP_pressure;BME280_temperature;BME280_humidity;BME280_pressure;Samples;Min_cycle;Max_cycle;Signal;HPM_P1;HPM_P2
2019/06/01 00:00:44;;;;;;;6.9;6.299999;;;;;;;10.34;98.60645;96007.5;;;;
2019/06/01 00:01:46;;;;;;;6.9;6.299999;;;;;;;10.34;98.60645;96007.5;;;;
2019/06/01 00:02:47;;;;;;;6.9;6.299999;;;;;;;10.34;98.60645;96007.5;;;;
2019/06/01 00:03:48;;;;;;;6.9;6.299999;;;;;;;10.34;98.60645;96007.5;;;;
2019/06/01 00:04:49;;;;;;;6.9;6.299999;;;;;;;10.34;98.60645;96007.5;;;;
2019/06/01 00:05:50;;;;;;;6.9;6.299999;;;;;;;10.34;98.60645;96007.5;;;;
2019/06/01 00:06:51;;;;;;;7.950001;7.15;;;;;;;10.26;98.95898;96011.83;;;;
2019/06/01 00:07:52;;;;;;;7.950001;7.15;;;;;;;10.26;98.95898;96011.83;;;;
2019/06/01 00:08:53;;;;;;;7.950001;7.15;;;;;;;10.26;98.95898;96011.83;;;;
2019/06/01 00:09:54;;;;;;;7.950001;7.15;;;;;;;10.26;98.95898;96011.83;;;;
2019/06/01 00:10:55;;;;;;;7.950001;7.15;;;;;;;10.26;98.95898;96011.83;;;;
2019/06/01 00:11:56;;;;;;;7.950001;7.15;;;;;;;10.26;98.95898;96011.83;;;;
2019/06/01 00:12:57;;;;;;;7.950001;7.15;;;;;;;10.26;98.95898;96011.83;;;;
2019/06/01 00:13:58;;;;;;;7.950001;7.15;;;;;;;10.26;98.95898;96011.83;;;;
2019/06/01 00:14:59;;;;;;;7.950001;7.15;;;;;;;10.26;98.95898;96011.83;;;;
2019/06/01 00:16:01;;;;;;;7.950001;7.15;;;;;;;10.26;98.95898;96011.83;;;;
2019/06/01 00:17:02;;;;;;;7.200001;6.500001;;;;;;;10.1;99.24121;96000.18;;;;
2019/06/01 00:18:03;;;;;;;7.200001;6.500001;;;;;;;10.1;99.24121;96000.18;;;;
2019/06/01 00:19:04;;;;;;;7.200001;6.500001;;;;;;;10.1;99.24121;96000.18;;;;
2019/06/01 00:20:05;;;;;;;7.200001;6.500001;;;;;;;10.1;99.24121;96000.18;;;;
2019/06/01 00:21:06;;;;;;;7.200001;6.500001;;;;;;;10.1;99.24121;96000.18;;;;
2019/06/01 00:22:07;;;;;;;7.200001;6.500001;;;;;;;10.1;99.24121;96000.18;;;;
2019/06/01 00:23:08;;;;;;;7.200001;6.500001;;;;;;;10.1;99.24121;96000.18;;;;
2019/06/01 00:24:09;;;;;;;7.200001;6.500001;;;;;;;10.1;99.24121;96000.18;;;;
2019/06/01 00:25:10;;;;;;;7.200001;6.500001;;;;;;;10.1;99.24121;96000.18;;;;
2019/06/01 00:26:11;;;;;;;7.200001;6.500001;;;;;;;10.1;99.24121;96000.18;;;;
2019/06/01 00:27:12;;;;;;;7.45;6.749999;;;;;;;10.02;99.57422;95994.98;;;;
2019/06/01 00:28:13;;;;;;;7.45;6.749999;;;;;;;10.02;99.57422;95994.98;;;;
2019/06/01 00:29:15;;;;;;;7.45;6.749999;;;;;;;10.02;99.57422;95994.98;;;;
2019/06/01 00:30:16;;;;;;;7.45;6.749999;;;;;;;10.02;99.57422;95994.98;;;;
2019/06/01 00:31:17;;;;;;;7.45;6.749999;;;;;;;10.02;99.57422;95994.98;;;;
2019/06/01 00:32:18;;;;;;;7.45;6.749999;;;;;;;10.02;99.57422;95994.98;;;;
2019/06/01 00:33:19;;;;;;;7.45;6.749999;;;;;;;10.02;99.57422;95994.98;;;;
2019/06/01 00:34:20;;;;;;;7.45;6.749999;;;;;;;10.02;99.57422;95994.98;;;;
2019/06/01 00:35:21;;;;;;;7.45;6.749999;;;;;;;10.02;99.57422;95994.98;;;;
2019/06/01 00:36:22;;;;;;;7.45;6.749999;;;;;;;10.02;99.57422;95994.98;;;;
2019/06/01 00:37:23;;;;;;;7.45;6.749999;;;;;;;10.02;99.57422;95994.98;;;;
2019/06/01 00:38:24;;;;;;;9.399998;6.050001;;;;;;;9.87;99.82617;95987.71;;;;
2019/06/01 00:39:25;;;;;;;9.399998;6.050001;;;;;;;9.87;99.82617;95987.71;;;;
2019/06/01 00:40:26;;;;;;;9.399998;6.050001;;;;;;;9.87;99.82617;95987.71;;;;
2019/06/01 00:41:27;;;;;;;9.399998;6.050001;;;;;;;9.87;99.82617;95987.71;;;;
2019/06/01 00:42:29;;;;;;;9.399998;6.050001;;;;;;;9.87;99.82617;95987.71;;;;
2019/06/01 00:43:30;;;;;;;9.399998;6.050001;;;;;;;9.87;99.82617;95987.71;;;;
2019/06/01 00:44:31;;;;;;;9.399998;6.050001;;;;;;;9.87;99.82617;95987.71;;;;
2019/06/01 00:45:32;;;;;;;9.399998;6.050001;;;;;;;9.87;99.82617;95987.71;;;;
2019/06/01 00:46:33;;;;;;;9.399998;6.050001;;;;;;;9.87;99.82617;95987.71;;;;
2019/06/01 00:47:34;;;;;;;9.399998;6.050001;;;;;;;9.87;99.82617;95987.71;;;;
2019/06/01 00:48:35;;;;;;;6.699999;6.100001;;;;;;;9.79;100;95975.8;;;;
2019/06/01 00:49:36;;;;;;;6.699999;6.100001;;;;;;;9.79;100;95975.8;;;;
2019/06/01 00:50:37;;;;;;;6.699999;6.100001;;;;;;;9.79;100;95975.8;;;;
2019/06/01 00:51:38;;;;;;;6.699999;6.100001;;;;;;;9.79;100;95975.8;;;;
2019/06/01 00:52:39;;;;;;;6.699999;6.100001;;;;;;;9.79;100;95975.8;;;;
2019/06/01 00:53:40;;;;;;;6.699999;6.100001;;;;;;;9.79;100;95975.8;;;;
2019/06/01 00:54:41;;;;;;;6.699999;6.100001;;;;;;;9.79;100;95975.8;;;;
2019/06/01 00:55:42;;;;;;;6.699999;6.100001;;;;;;;9.79;100;95975.8;;;;
2019/06/01 00:56:44;;;;;;;6.699999;6.100001;;;;;;;9.79;100;95975.8;;;;
2019/06/01 00:57:45;;;;;;;6.699999;6.100001;;;;;;;9.79;100;95975.8;;;;
2019/06/01 00:58:46;;;;;;;6.699999;6.100001;;;;;;;9.79;100;95975.8;;;;
2019/06/01 00:59:47;;;;;;;7.050001;6.45;;;;;;;9.66;100;95971;;;;
2019/06/01 01:00:48;;;;;;;7.050001;6.45;;;;;;;9.66;100;95971;;;;
2019/06/01 01:01:49;;;;;;;7.050001;6.45;;;;;;;9.66;100;95971;;;;
2019/06/01 01:02:50;;;;;;;7.050001;6.45;;;;;;;9.66;100;95971;;;;
2019/06/01 01:03:51;;;;;;;7.050001;6.45;;;;;;;9.66;100;95971;;;;
2019/06/01 01:04:52;;;;;;;7.050001;6.45;;;;;;;9.66;100;95971;;;;
2019/06/01 01:06:22;;;;;;;7.050001;6.45;;;;;;;9.66;100;95971;;;;
2019/06/01 01:07:23;;;;;;;7.050001;6.45;;;;;;;9.66;100;95971;;;;
2019/06/01 01:08:24;;;;;;;7.050001;6.45;;;;;;;9.66;100;95971;;;;
2019/06/01 01:09:25;;;;;;;7.050001;6.45;;;;;;;9.66;100;95971;;;;
2019/06/01 01:10:26;;;;;;;9.1;6.700001;;;;;;;9.62;100;95977.84;;;;
2019/06/01 01:11:27;;;;;;;9.1;6.700001;;;;;;;9.62;100;95977.84;;;;
2019/06/01 01:12:29;;;;;;;9.1;6.700001;;;;;;;9.62;100;95977.84;;;;
2019/06/01 01:13:30;;;;;;;9.1;6.700001;;;;;;;9.62;100;95977.84;;;;
2019/06/01 01:14:31;;;;;;;9.1;6.700001;;;;;;;9.62;100;95977.84;;;;
2019/06/01 01:15:32;;;;;;;9.1;6.700001;;;;;;;9.62;100;95977.84;;;;
2019/06/01 01:16:33;;;;;;;9.1;6.700001;;;;;;;9.62;100;95977.84;;;;
2019/06/01 01:17:34;;;;;;;9.1;6.700001;;;;;;;9.62;100;95977.84;;;;
2019/06/01 01:18:36;;;;;;;9.1;6.700001;;;;;;;9.62;100;95977.84;;;;
2019/06/01 01:19:37;;;;;;;9.1;6.700001;;;;;;;9.62;100;95977.84;;;;
2019/06/01 01:20:38;;;;;;;7.4;6.550001;;;;;;;9.53;100;95975.37;;;;
2019/06/01 01:21:39;;;;;;;7.4;6.550001;;;;;;;9.53;100;95975.37;;;;
2019/06/01 01:22:40;;;;;;;7.4;6.550001;;;;;;;9.53;100;95975.37;;;;
2019/06/01 01:23:41;;;;;;;7.4;6.550001;;;;;;;9.53;100;95975.37;;;;
2019/06/01 01:24:43;;;;;;;7.4;6.550001;;;;;;;9.53;100;95975.37;;;;
2019/06/01 01:25:44;;;;;;;7.4;6.550001;;;;;;;9.53;100;95975.37;;;;
2019/06/01 01:26:45;;;;;;;7.4;6.550001;;;;;;;9.53;100;95975.37;;;;
2019/06/01 01:27:46;;;;;;;7.4;6.550001;;;;;;;9.53;100;95975.37;;;;
2019/06/01 01:28:47;;;;;;;7.4;6.550001;;;;;;;9.53;100;95975.37;;;;
2019/06/01 01:29:48;;;;;;;7.4;6.550001;;;;;;;9.53;100;95975.37;;;;
2019/06/01 01:30:49;;;;;;;7.149999;6.45;;;;;;;9.49;100;95970.22;;;;
2019/06/01 01:31:51;;;;;;;7.149999;6.45;;;;;;;9.49;100;95970.22;;;;
2019/06/01 01:32:52;;;;;;;7.149999;6.45;;;;;;;9.49;100;95970.22;;;;
2019/06/01 01:33:53;;;;;;;7.149999;6.45;;;;;;;9.49;100;95970.22;;;;
2019/06/01 01:34:54;;;;;;;7.149999;6.45;;;;;;;9.49;100;95970.22;;;;
2019/06/01 01:35:55;;;;;;;7.149999;6.45;;;;;;;9.49;100;95970.22;;;;
2019/06/01 01:36:56;;;;;;;7.149999;6.45;;;;;;;9.49;100;95970.22;;;;
2019/06/01 01:37:57;;;;;;;7.149999;6.45;;;;;;;9.49;100;95970.22;;;;
2019/06/01 01:38:58;;;;;;;7.149999;6.45;;;;;;;9.49;100;95970.22;;;;
2019/06/01 01:39:59;;;;;;;7.149999;6.45;;;;;;;9.49;100;95970.22;;;;
2019/06/01 01:41:01;;;;;;;7.149999;6.45;;;;;;;9.49;100;95970.22;;;;
2019/06/01 01:42:02;;;;;;;7.199999;6.45;;;;;;;9.38;100;95971.7;;;;
2019/06/01 01:43:03;;;;;;;7.199999;6.45;;;;;;;9.38;100;95971.7;;;;
2019/06/01 01:44:04;;;;;;;7.199999;6.45;;;;;;;9.38;100;95971.7;;;;
2019/06/01 01:45:05;;;;;;;7.199999;6.45;;;;;;;9.38;100;95971.7;;;;
2019/06/01 01:46:07;;;;;;;7.199999;6.45;;;;;;;9.38;100;95971.7;;;;
2019/06/01 01:47:08;;;;;;;7.199999;6.45;;;;;;;9.38;100;95971.7;;;;
2019/06/01 01:48:09;;;;;;;7.199999;6.45;;;;;;;9.38;100;95971.7;;;;
2019/06/01 01:49:10;;;;;;;7.199999;6.45;;;;;;;9.38;100;95971.7;;;;
2019/06/01 01:50:11;;;;;;;7.199999;6.45;;;;;;;9.38;100;95971.7;;;;
2019/06/01 01:51:13;;;;;;;7.199999;6.45;;;;;;;9.38;100;95971.7;;;;
2019/06/01 01:52:14;;;;;;;7.199999;6.45;;;;;;;9.38;100;95971.7;;;;
2019/06/01 01:53:15;;;;;;;7.199999;6.45;;;;;;;9.38;100;95971.7;;;;
2019/06/01 01:54:16;;;;;;;7.199999;6.45;;;;;;;9.38;100;95971.7;;;;
2019/06/01 01:55:17;;;;;;;7.199999;6.45;;;;;;;9.38;100;95971.7;;;;
2019/06/01 01:56:18;;;;;;;7.199999;6.45;;;;;;;9.38;100;95971.7;;;;
2019/06/01 01:57:19;;;;;;;7.199999;6.45;;;;;;;9.38;100;95971.7;;;;
2019/06/01 01:58:21;;;;;;;7.199999;6.45;;;;;;;9.38;100;95971.7;;;;
2019/06/01 01:59:22;;;;;;;7.199999;6.45;;;;;;;9.38;100;95971.7;;;;
2019/06/01 02:00:23;;;;;;;7.199999;6.45;;;;;;;9.38;100;95971.7;;;;
2019/06/01 02:01:35;;;;;;;7.199999;6.45;;;;;;;9.38;100;95971.7;;;;
2019/06/01 02:02:36;;;;;;;7.199999;6.45;;;;;;;9.38;100;95971.7;;;;
2019/06/01 02:03:37;;;;;;;7.5;6.8;;;;;;;9.34;100;95963.31;;;;
2019/06/01 02:04:38;;;;;;;7.5;6.8;;;;;;;9.34;100;95963.31;;;;
2019/06/01 02:05:39;;;;;;;7.5;6.8;;;;;;;9.34;100;95963.31;;;;
2019/06/01 02:06:40;;;;;;;7.5;6.8;;;;;;;9.34;100;95963.31;;;;
2019/06/01 02:07:41;;;;;;;7.5;6.8;;;;;;;9.34;100;95963.31;;;;
2019/06/01 02:08:42;;;;;;;7.5;6.8;;;;;;;9.34;100;95963.31;;;;
2019/06/01 02:09:44;;;;;;;7.5;6.8;;;;;;;9.34;100;95963.31;;;;
2019/06/01 02:10:45;;;;;;;7.5;6.8;;;;;;;9.34;100;95963.31;;;;
2019/06/01 02:11:46;;;;;;;7.5;6.8;;;;;;;9.34;100;95963.31;;;;
2019/06/01 02:12:47;;;;;;;7.5;6.8;;;;;;;9.34;100;95963.31;;;;
2019/06/01 02:13:48;;;;;;;6.749999;6.149999;;;;;;;9.28;100;95965.1;;;;
2019/06/01 02:14:49;;;;;;;6.749999;6.149999;;;;;;;9.28;100;95965.1;;;;
2019/06/01 02:15:50;;;;;;;6.749999;6.149999;;;;;;;9.28;100;95965.1;;;;
2019/06/01 02:16:51;;;;;;;6.749999;6.149999;;;;;;;9.28;100;95965.1;;;;
2019/06/01 02:17:53;;;;;;;6.749999;6.149999;;;;;;;9.28;100;95965.1;;;;
2019/06/01 02:18:54;;;;;;;6.749999;6.149999;;;;;;;9.28;100;95965.1;;;;
2019/06/01 02:19:55;;;;;;;6.749999;6.149999;;;;;;;9.28;100;95965.1;;;;
2019/06/01 02:20:56;;;;;;;6.749999;6.149999;;;;;;;9.28;100;95965.1;;;;
2019/06/01 02:21:57;;;;;;;6.749999;6.149999;;;;;;;9.28;100;95965.1;;;;
2019/06/01 02:22:59;;;;;;;6.749999;6.149999;;;;;;;9.28;100;95965.1;;;;
2019/06/01 02:24:00;;;;;;;7.05;6.45;;;;;;;9.16;100;95962.63;;;;
2019/06/01 02:25:01;;;;;;;7.05;6.45;;;;;;;9.16;100;95962.63;;;;
2019/06/01 02:26:03;;;;;;;7.05;6.45;;;;;;;9.16;100;95962.63;;;;
2019/06/01 02:27:04;;;;;;;7.05;6.45;;;;;;;9.16;100;95962.63;;;;
2019/06/01 02:28:05;;;;;;;7.05;6.45;;;;;;;9.16;100;95962.63;;;;
2019/06/01 02:29:06;;;;;;;7.05;6.45;;;;;;;9.16;100;95962.63;;;;
2019/06/01 02:30:07;;;;;;;7.05;6.45;;;;;;;9.16;100;95962.63;;;;
2019/06/01 02:31:08;;;;;;;7.05;6.45;;;;;;;9.16;100;95962.63;;;;
2019/06/01 02:32:09;;;;;;;7.05;6.45;;;;;;;9.16;100;95962.63;;;;
2019/06/01 02:33:11;;;;;;;7.05;6.45;;;;;;;9.16;100;95962.63;;;;
2019/06/01 02:34:12;;;;;;;7.05;6.45;;;;;;;9.16;100;95962.63;;;;
2019/06/01 02:35:13;;;;;;;7.05;6.45;;;;;;;9.14;100;95962.94;;;;
2019/06/01 02:36:14;;;;;;;7.05;6.45;;;;;;;9.14;100;95962.94;;;;
2019/06/01 02:37:15;;;;;;;7.05;6.45;;;;;;;9.14;100;95962.94;;;;
2019/06/01 02:38:16;;;;;;;7.05;6.45;;;;;;;9.14;100;95962.94;;;;
2019/06/01 02:39:17;;;;;;;7.05;6.45;;;;;;;9.14;100;95962.94;;;;
2019/06/01 02:40:18;;;;;;;7.05;6.45;;;;;;;9.14;100;95962.94;;;;
2019/06/01 02:41:20;;;;;;;7.05;6.45;;;;;;;9.14;100;95962.94;;;;
2019/06/01 02:42:21;;;;;;;7.05;6.45;;;;;;;9.14;100;95962.94;;;;
2019/06/01 02:43:22;;;;;;;7.05;6.45;;;;;;;9.14;100;95962.94;;;;
2019/06/01 02:44:23;;;;;;;7.05;6.45;;;;;;;9.14;100;95962.94;;;;
2019/06/01 02:45:24;;;;;;;6.599999;6.000001;;;;;;;9.06;100;95952.4;;;;
2019/06/01 02:46:26;;;;;;;6.599999;6.000001;;;;;;;9.06;100;95952.4;;;;
2019/06/01 02:47:27;;;;;;;6.599999;6.000001;;;;;;;9.06;100;95952.4;;;;
2019/06/01 02:48:28;;;;;;;6.599999;6.000001;;;;;;;9.06;100;95952.4;;;;
2019/06/01 02:49:29;;;;;;;6.599999;6.000001;;;;;;;9.06;100;95952.4;;;;
2019/06/01 02:50:30;;;;;;;6.599999;6.000001;;;;;;;9.06;100;95952.4;;;;
2019/06/01 02:51:31;;;;;;;6.599999;6.000001;;;;;;;9.06;100;95952.4;;;;
2019/06/01 02:52:32;;;;;;;6.599999;6.000001;;;;;;;9.06;100;95952.4;;;;
2019/06/01 02:53:33;;;;;;;6.599999;6.000001;;;;;;;9.06;100;95952.4;;;;
2019/06/01 02:54:34;;;;;;;6.599999;6.000001;;;;;;;9.06;100;95952.4;;;;
2019/06/01 02:55:35;;;;;;;6.599999;6.000001;;;;;;;9.06;100;95952.4;;;;
2019/06/01 02:56:36;;;;;;;7.2;6.05;;;;;;;9.03;100;95960.5;;;;
2019/06/01 02:57:38;;;;;;;7.2;6.05;;;;;;;9.03;100;95960.5;;;;
2019/06/01 02:58:39;;;;;;;7.2;6.05;;;;;;;9.03;100;95960.5;;;;
2019/06/01 02:59:40;;;;;;;7.2;6.05;;;;;;;9.03;100;95960.5;;;;
2019/06/01 03:00:41;;;;;;;7.2;6.05;;;;;;;9.03;100;95960.5;;;;
2019/06/01 03:04:30;;;;;;;7.2;6.05;;;;;;;9.03;100;95960.5;;;;
2019/06/01 03:05:31;;;;;;;7.2;6.05;;;;;;;9.03;100;95960.5;;;;
2019/06/01 03:06:32;;;;;;;7.85;6.3;;;;;;;8.94;100;95965.67;;;;
2019/06/01 03:07:35;;;;;;;7.85;6.3;;;;;;;8.94;100;95965.67;;;;
2019/06/01 03:08:36;;;;;;;7.85;6.3;;;;;;;8.94;100;95965.67;;;;
2019/06/01 03:09:37;;;;;;;7.85;6.3;;;;;;;8.94;100;95965.67;;;;
2019/06/01 03:10:38;;;;;;;7.85;6.3;;;;;;;8.94;100;95965.67;;;;
2019/06/01 03:11:40;;;;;;;7.85;6.3;;;;;;;8.94;100;95965.67;;;;
2019/06/01 03:12:41;;;;;;;7.85;6.3;;;;;;;8.94;100;95965.67;;;;
2019/06/01 03:13:43;;;;;;;7.85;6.3;;;;;;;8.94;100;95965.67;;;;
2019/06/01 03:14:44;;;;;;;7.85;6.3;;;;;;;8.94;100;95965.67;;;;
2019/06/01 03:15:45;;;;;;;7.85;6.3;;;;;;;8.94;100;95965.67;;;;
2019/06/01 03:16:46;;;;;;;7.85;6.3;;;;;;;8.94;100;95965.67;;;;
2019/06/01 03:17:48;;;;;;;7.85;6.3;;;;;;;8.94;100;95965.67;;;;
2019/06/01 03:18:49;;;;;;;7.85;6.3;;;;;;;8.94;100;95965.67;;;;
2019/06/01 03:19:51;;;;;;;7.85;6.3;;;;;;;8.94;100;95965.67;;;;
2019/06/01 03:20:52;;;;;;;7.85;6.3;;;;;;;8.94;100;95965.67;;;;
2019/06/01 03:21:53;;;;;;;7.85;6.3;;;;;;;8.94;100;95965.67;;;;
2019/06/01 03:22:55;;;;;;;7.85;6.3;;;;;;;8.94;100;95965.67;;;;
2019/06/01 03:23:56;;;;;;;7.85;6.3;;;;;;;8.94;100;95965.67;;;;
2019/06/01 03:25:02;;;;;;;7.85;6.3;;;;;;;8.94;100;95965.67;;;;
2019/06/01 03:26:03;;;;;;;7.85;6.3;;;;;;;8.94;100;95965.67;;;;
2019/06/01 03:27:04;;;;;;;7.85;6.3;;;;;;;8.94;100;95965.67;;;;
2019/06/01 03:28:05;;;;;;;6.45;5.799999;;;;;;;8.87;100;95966.19;;;;
2019/06/01 03:29:06;;;;;;;6.45;5.799999;;;;;;;8.87;100;95966.19;;;;
2019/06/01 03:30:07;;;;;;;6.45;5.799999;;;;;;;8.87;100;95966.19;;;;
2019/06/01 03:31:08;;;;;;;6.45;5.799999;;;;;;;8.87;100;95966.19;;;;
2019/06/01 03:32:09;;;;;;;6.45;5.799999;;;;;;;8.87;100;95966.19;;;;
2019/06/01 03:33:11;;;;;;;6.45;5.799999;;;;;;;8.87;100;95966.19;;;;
2019/06/01 03:34:12;;;;;;;6.45;5.799999;;;;;;;8.87;100;95966.19;;;;
2019/06/01 03:35:13;;;;;;;6.45;5.799999;;;;;;;8.87;100;95966.19;;;;
2019/06/01 03:36:14;;;;;;;6.45;5.799999;;;;;;;8.87;100;95966.19;;;;
2019/06/01 03:37:15;;;;;;;6.45;5.799999;;;;;;;8.87;100;95966.19;;;;
2019/06/01 03:38:16;;;;;;;6.499999;5.7;;;;;;;8.91;100;95961.22;;;;
2019/06/01 03:39:17;;;;;;;6.499999;5.7;;;;;;;8.91;100;95961.22;;;;
2019/06/01 03:40:18;;;;;;;6.499999;5.7;;;;;;;8.91;100;95961.22;;;;
2019/06/01 03:41:19;;;;;;;6.499999;5.7;;;;;;;8.91;100;95961.22;;;;
2019/06/01 03:42:20;;;;;;;6.499999;5.7;;;;;;;8.91;100;95961.22;;;;
2019/06/01 03:43:21;;;;;;;6.499999;5.7;;;;;;;8.91;100;95961.22;;;;
2019/06/01 03:44:22;;;;;;;6.499999;5.7;;;;;;;8.91;100;95961.22;;;;
2019/06/01 03:45:24;;;;;;;6.499999;5.7;;;;;;;8.91;100;95961.22;;;;
2019/06/01 03:46:25;;;;;;;6.499999;5.7;;;;;;;8.91;100;95961.22;;;;
2019/06/01 03:47:26;;;;;;;6.499999;5.7;;;;;;;8.91;100;95961.22;;;;
2019/06/01 03:48:27;;;;;;;6.499999;5.7;;;;;;;8.91;100;95961.22;;;;
2019/06/01 03:49:28;;;;;;;7.25;6.400001;;;;;;;8.94;100;95956.36;;;;
2019/06/01 03:50:29;;;;;;;7.25;6.400001;;;;;;;8.94;100;95956.36;;;;
2019/06/01 03:51:30;;;;;;;7.25;6.400001;;;;;;;8.94;100;95956.36;;;;
2019/06/01 03:52:31;;;;;;;7.25;6.400001;;;;;;;8.94;100;95956.36;;;;
2019/06/01 03:53:32;;;;;;;7.25;6.400001;;;;;;;8.94;100;95956.36;;;;
2019/06/01 03:54:33;;;;;;;7.25;6.400001;;;;;;;8.94;100;95956.36;;;;
2019/06/01 03:55:34;;;;;;;7.25;6.400001;;;;;;;8.94;100;95956.36;;;;
2019/06/01 03:56:36;;;;;;;7.25;6.400001;;;;;;;8.94;100;95956.36;;;;
2019/06/01 03:57:37;;;;;;;7.25;6.400001;;;;;;;8.94;100;95956.36;;;;
2019/06/01 03:58:38;;;;;;;7.25;6.400001;;;;;;;8.94;100;95956.36;;;;
2019/06/01 03:59:39;;;;;;;7.35;6.4;;;;;;;9.11;100;95966.57;;;;
2019/06/01 04:00:40;;;;;;;7.35;6.4;;;;;;;9.11;100;95966.57;;;;
2019/06/01 04:01:41;;;;;;;7.35;6.4;;;;;;;9.11;100;95966.57;;;;
2019/06/01 04:02:42;;;;;;;7.35;6.4;;;;;;;9.11;100;95966.57;;;;
2019/06/01 04:03:43;;;;;;;7.35;6.4;;;;;;;9.11;100;95966.57;;;;
2019/06/01 04:04:44;;;;;;;7.35;6.4;;;;;;;9.11;100;95966.57;;;;
2019/06/01 04:05:45;;;;;;;7.35;6.4;;;;;;;9.11;100;95966.57;;;;
2019/06/01 04:06:47;;;;;;;7.35;6.4;;;;;;;9.11;100;95966.57;;;;
2019/06/01 04:07:48;;;;;;;7.35;6.4;;;;;;;9.11;100;95966.57;;;;
2019/06/01 04:08:49;;;;;;;7.35;6.4;;;;;;;9.11;100;95966.57;;;;
2019/06/01 04:09:50;;;;;;;7.35;6.4;;;;;;;9.11;100;95966.57;;;;
2019/06/01 04:10:51;;;;;;;7.35;6.4;;;;;;;9.11;100;95966.57;;;;
2019/06/01 04:11:52;;;;;;;7.35;6.4;;;;;;;9.11;100;95966.57;;;;
2019/06/01 04:12:53;;;;;;;7.35;6.4;;;;;;;9.11;100;95966.57;;;;
2019/06/01 04:13:54;;;;;;;7.35;6.4;;;;;;;9.11;100;95966.57;;;;
2019/06/01 04:14:55;;;;;;;7.35;6.4;;;;;;;9.11;100;95966.57;;;;
2019/06/01 04:15:56;;;;;;;7.35;6.4;;;;;;;9.11;100;95966.57;;;;
2019/06/01 04:16:58;;;;;;;7.35;6.4;;;;;;;9.11;100;95966.57;;;;
2019/06/01 04:17:59;;;;;;;7.35;6.4;;;;;;;9.11;100;95966.57;;;;
2019/06/01 04:19:00;;;;;;;7.35;6.4;;;;;;;9.11;100;95966.57;;;;
2019/06/01 04:20:01;;;;;;;7.35;6.4;;;;;;;9.11;100;95966.57;;;;
2019/06/01 04:21:02;;;;;;;5.5;5;;;;;;;9.43;100;95959.34;;;;
2019/06/01 04:22:03;;;;;;;5.5;5;;;;;;;9.43;100;95959.34;;;;
2019/06/01 04:23:05;;;;;;;5.5;5;;;;;;;9.43;100;95959.34;;;;
2019/06/01 04:24:06;;;;;;;5.5;5;;;;;;;9.43;100;95959.34;;;;
2019/06/01 04:25:07;;;;;;;5.5;5;;;;;;;9.43;100;95959.34;;;;
2019/06/01 04:26:08;;;;;;;5.5;5;;;;;;;9.43;100;95959.34;;;;
2019/06/01 04:27:09;;;;;;;5.5;5;;;;;;;9.43;100;95959.34;;;;
2019/06/01 04:28:10;;;;;;;5.5;5;;;;;;;9.43;100;95959.34;;;;
2019/06/01 04:29:11;;;;;;;5.5;5;;;;;;;9.43;100;95959.34;;;;
2019/06/01 04:30:12;;;;;;;5.5;5;;;;;;;9.43;100;95959.34;;;;
2019/06/01 04:31:14;;;;;;;5.15;4.75;;;;;;;9.6;100;95959.61;;;;
2019/06/01 04:32:15;;;;;;;5.15;4.75;;;;;;;9.6;100;95959.61;;;;
2019/06/01 04:33:16;;;;;;;5.15;4.75;;;;;;;9.6;100;95959.61;;;;
2019/06/01 04:34:17;;;;;;;5.15;4.75;;;;;;;9.6;100;95959.61;;;;
2019/06/01 04:35:18;;;;;;;5.15;4.75;;;;;;;9.6;100;95959.61;;;;
2019/06/01 04:36:19;;;;;;;5.15;4.75;;;;;;;9.6;100;95959.61;;;;
2019/06/01 04:37:20;;;;;;;5.15;4.75;;;;;;;9.6;100;95959.61;;;;
2019/06/01 04:38:21;;;;;;;5.15;4.75;;;;;;;9.6;100;95959.61;;;;
2019/06/01 04:39:22;;;;;;;5.15;4.75;;;;;;;9.6;100;95959.61;;;;
2019/06/01 04:40:23;;;;;;;5.15;4.75;;;;;;;9.6;100;95959.61;;;;
2019/06/01 04:41:24;;;;;;;5.15;4.75;;;;;;;9.6;100;95959.61;;;;
2019/06/01 04:42:25;;;;;;;5.450001;4.95;;;;;;;9.93;100;95960.41;;;;
2019/06/01 04:43:26;;;;;;;5.450001;4.95;;;;;;;9.93;100;95960.41;;;;
2019/06/01 04:44:28;;;;;;;5.450001;4.95;;;;;;;9.93;100;95960.41;;;;
2019/06/01 04:45:29;;;;;;;5.450001;4.95;;;;;;;9.93;100;95960.41;;;;
2019/06/01 04:46:30;;;;;;;5.450001;4.95;;;;;;;9.93;100;95960.41;;;;
2019/06/01 04:47:31;;;;;;;5.450001;4.95;;;;;;;9.93;100;95960.41;;;;
2019/06/01 04:48:32;;;;;;;5.450001;4.95;;;;;;;9.93;100;95960.41;;;;
2019/06/01 04:49:33;;;;;;;5.450001;4.95;;;;;;;9.93;100;95960.41;;;;
2019/06/01 04:50:34;;;;;;;5.450001;4.95;;;;;;;9.93;100;95960.41;;;;
2019/06/01 04:51:35;;;;;;;5.450001;4.95;;;;;;;9.93;100;95960.41;;;;
2019/06/01 04:52:36;;;;;;;5.2;4.2;;;;;;;10.29;100;95962.8;;;;
2019/06/01 04:53:37;;;;;;;5.2;4.2;;;;;;;10.29;100;95962.8;;;;
2019/06/01 04:54:38;;;;;;;5.2;4.2;;;;;;;10.29;100;95962.8;;;;
2019/06/01 04:55:40;;;;;;;5.2;4.2;;;;;;;10.29;100;95962.8;;;;
2019/06/01 04:56:41;;;;;;;5.2;4.2;;;;;;;10.29;100;95962.8;;;;
2019/06/01 04:57:42;;;;;;;5.2;4.2;;;;;;;10.29;100;95962.8;;;;
2019/06/01 04:58:43;;;;;;;5.2;4.2;;;;;;;10.29;100;95962.8;;;;
2019/06/01 04:59:44;;;;;;;5.2;4.2;;;;;;;10.29;100;95962.8;;;;
2019/06/01 05:00:45;;;;;;;5.2;4.2;;;;;;;10.29;100;95962.8;;;;
2019/06/01 05:01:46;;;;;;;5.2;4.2;;;;;;;10.29;100;95962.8;;;;
2019/06/01 05:02:47;;;;;;;3.8;3.5;;;;;;;10.94;100;95971.86;;;;
2019/06/01 05:03:48;;;;;;;3.8;3.5;;;;;;;10.94;100;95971.86;;;;
2019/06/01 05:04:49;;;;;;;3.8;3.5;;;;;;;10.94;100;95971.86;;;;
2019/06/01 05:05:50;;;;;;;3.8;3.5;;;;;;;10.94;100;95971.86;;;;
2019/06/01 05:06:51;;;;;;;3.8;3.5;;;;;;;10.94;100;95971.86;;;;
2019/06/01 05:07:52;;;;;;;3.8;3.5;;;;;;;10.94;100;95971.86;;;;
2019/06/01 05:08:54;;;;;;;3.8;3.5;;;;;;;10.94;100;95971.86;;;;
2019/06/01 05:09:55;;;;;;;3.8;3.5;;;;;;;10.94;100;95971.86;;;;
2019/06/01 05:10:56;;;;;;;3.8;3.5;;;;;;;10.94;100;95971.86;;;;
2019/06/01 05:11:57;;;;;;;3.8;3.5;;;;;;;10.94;100;95971.86;;;;
2019/06/01 05:12:58;;;;;;;3.8;3.5;;;;;;;10.94;100;95971.86;;;;
2019/06/01 05:13:59;;;;;;;3.550001;3.2;;;;;;;11.63;100;95962.95;;;;
2019/06/01 05:15:00;;;;;;;3.550001;3.2;;;;;;;11.63;100;95962.95;;;;
2019/06/01 05:16:01;;;;;;;3.550001;3.2;;;;;;;11.63;100;95962.95;;;;
2019/06/01 05:17:02;;;;;;;3.550001;3.2;;;;;;;11.63;100;95962.95;;;;
2019/06/01 05:18:03;;;;;;;3.550001;3.2;;;;;;;11.63;100;95962.95;;;;
2019/06/01 05:19:04;;;;;;;3.550001;3.2;;;;;;;11.63;100;95962.95;;;;
2019/06/01 05:20:06;;;;;;;3.550001;3.2;;;;;;;11.63;100;95962.95;;;;
2019/06/01 05:21:07;;;;;;;3.550001;3.2;;;;;;;11.63;100;95962.95;;;;
2019/06/01 05:22:08;;;;;;;3.550001;3.2;;;;;;;11.63;100;95962.95;;;;
2019/06/01 05:23:09;;;;;;;3.550001;3.2;;;;;;;11.63;100;95962.95;;;;
2019/06/01 05:24:10;;;;;;;3.1;2.8;;;;;;;12.36;100;95961.91;;;;
2019/06/01 05:25:11;;;;;;;3.1;2.8;;;;;;;12.36;100;95961.91;;;;
2019/06/01 05:26:12;;;;;;;3.1;2.8;;;;;;;12.36;100;95961.91;;;;
2019/06/01 05:27:13;;;;;;;3.1;2.8;;;;;;;12.36;100;95961.91;;;;
2019/06/01 05:28:14;;;;;;;3.1;2.8;;;;;;;12.36;100;95961.91;;;;
2019/06/01 05:29:15;;;;;;;3.1;2.8;;;;;;;12.36;100;95961.91;;;;
2019/06/01 05:30:16;;;;;;;3.1;2.8;;;;;;;12.36;100;95961.91;;;;
2019/06/01 05:31:17;;;;;;;3.1;2.8;;;;;;;12.36;100;95961.91;;;;
2019/06/01 05:32:19;;;;;;;3.1;2.8;;;;;;;12.36;100;95961.91;;;;
2019/06/01 05:33:20;;;;;;;3.1;2.8;;;;;;;12.36;100;95961.91;;;;
2019/06/01 05:34:21;;;;;;;3.1;2.8;;;;;;;12.36;100;95961.91;;;;
2019/06/01 05:35:22;;;;;;;2.85;2.6;;;;;;;12.97;100;95964.18;;;;
2019/06/01 05:36:23;;;;;;;2.85;2.6;;;;;;;12.97;100;95964.18;;;;
2019/06/01 05:37:24;;;;;;;2.85;2.6;;;;;;;12.97;100;95964.18;;;;
2019/06/01 05:38:25;;;;;;;2.85;2.6;;;;;;;12.97;100;95964.18;;;;
2019/06/01 05:39:26;;;;;;;2.85;2.6;;;;;;;12.97;100;95964.18;;;;
2019/06/01 05:40:27;;;;;;;2.85;2.6;;;;;;;12.97;100;95964.18;;;;
2019/06/01 05:41:28;;;;;;;2.85;2.6;;;;;;;12.97;100;95964.18;;;;
2019/06/01 05:42:29;;;;;;;2.85;2.6;;;;;;;12.97;100;95964.18;;;;
2019/06/01 05:43:30;;;;;;;2.85;2.6;;;;;;;12.97;100;95964.18;;;;
2019/06/01 05:44:31;;;;;;;2.85;2.6;;;;;;;12.97;100;95964.18;;;;
2019/06/01 05:45:32;;;;;;;2.65;2.45;;;;;;;13.57;100;95953.55;;;;
2019/06/01 05:46:33;;;;;;;2.65;2.45;;;;;;;13.57;100;95953.55;;;;
2019/06/01 05:47:35;;;;;;;2.65;2.45;;;;;;;13.57;100;95953.55;;;;
2019/06/01 05:48:36;;;;;;;2.65;2.45;;;;;;;13.57;100;95953.55;;;;
2019/06/01 05:49:37;;;;;;;2.65;2.45;;;;;;;13.57;100;95953.55;;;;
2019/06/01 05:50:38;;;;;;;2.65;2.45;;;;;;;13.57;100;95953.55;;;;
2019/06/01 05:51:39;;;;;;;2.65;2.45;;;;;;;13.57;100;95953.55;;;;
2019/06/01 05:52:40;;;;;;;2.65;2.45;;;;;;;13.57;100;95953.55;;;;
2019/06/01 05:53:41;;;;;;;2.65;2.45;;;;;;;13.57;100;95953.55;;;;
2019/06/01 05:54:42;;;;;;;2.65;2.45;;;;;;;13.57;100;95953.55;;;;
2019/06/01 05:55:43;;;;;;;2.65;2.45;;;;;;;13.57;100;95953.55;;;;
2019/06/01 05:56:44;;;;;;;2.65;2.45;;;;;;;13.57;100;95953.55;;;;
2019/06/01 05:57:45;;;;;;;2.65;2.45;;;;;;;13.57;100;95953.55;;;;
2019/06/01 05:58:46;;;;;;;2.65;2.45;;;;;;;13.57;100;95953.55;;;;
2019/06/01 05:59:47;;;;;;;2.65;2.45;;;;;;;13.57;100;95953.55;;;;
2019/06/01 06:00:49;;;;;;;2.65;2.45;;;;;;;13.57;100;95953.55;;;;
2019/06/01 06:01:50;;;;;;;2.65;2.45;;;;;;;13.57;100;95953.55;;;;
2019/06/01 06:02:51;;;;;;;2.65;2.45;;;;;;;13.57;100;95953.55;;;;
2019/06/01 06:03:52;;;;;;;2.65;2.45;;;;;;;13.57;100;95953.55;;;;
2019/06/01 06:04:53;;;;;;;2.65;2.45;;;;;;;13.57;100;95953.55;;;;
2019/06/01 06:05:54;;;;;;;2.65;2.45;;;;;;;13.57;100;95953.55;;;;